Time;durP1;ratioP1;P1;durP2;ratioP2;P2;SDS_P1;SDS_P2;PMS_P1;PMS_P2;Temp;Humidity;BMP_temperature;BMP_pressure;BME280_temperature;BME280_humidity;BME280_pressure;Samples;Min_cycle;Max_cycle;Signal;HPM_P1;HPM_P2
2024/01/01 00:01:28;;;;;;;0.00;0.00;;;11.10;69.50;;;;;;5088415;28;20330;-37
2024/01/01 00:04:00;;;;;;;0.00;0.00;;;11.10;69.40;;;;;;5083194;28;20217;-38
2024/01/01 00:06:28;;;;;;;0.00;0.00;;;11.10;69.60;;;;;;5089175;28;20728;-37
2024/01/01 00:09:06;;;;;;;0.00;0.00;;;11.10;69.60;;;;;;5087716;28;20644;-38
2024/01/01 00:11:38;;;;;;;0.00;0.00;;;11.10;69.70;;;;;;5088321;28;20283;-39
2024/01/01 00:14:08;;;;;;;0.00;0.00;;;11.10;69.70;;;;;;5087024;28;20201;-39
2024/01/01 00:16:42;;;;;;;0.00;0.00;;;11.00;69.70;;;;;;5089564;28;20286;-38
2024/01/01 00:19:12;;;;;;;0.00;0.00;;;11.00;69.70;;;;;;5085753;28;20246;-39
2024/01/01 00:21:40;;;;;;;0.00;0.00;;;11.00;69.80;;;;;;5087569;28;20199;-38
2024/01/01 00:24:09;;;;;;;0.00;0.00;;;11.00;69.80;;;;;;5089193;28;20226;-39
2024/01/01 00:26:39;;;;;;;0.00;0.00;;;11.00;70.00;;;;;;5066761;28;20218;-39
2024/01/01 00:29:09;;;;;;;0.00;0.00;;;11.00;69.90;;;;;;5088196;28;20225;-38
2024/01/01 00:31:48;;;;;;;0.00;0.00;;;11.00;69.90;;;;;;5089149;28;20755;-38
2024/01/01 00:34:17;;;;;;;0.00;0.00;;;10.90;69.90;;;;;;5088082;28;20286;-39
2024/01/01 00:36:45;;;;;;;0.00;0.00;;;10.90;69.80;;;;;;5087828;28;20225;-38
2024/01/01 00:39:14;;;;;;;0.00;0.00;;;10.80;69.80;;;;;;5085863;28;20665;-38
2024/01/01 00:41:46;;;;;;;0.00;0.00;;;10.80;69.80;;;;;;5085719;28;20238;-36
2024/01/01 00:44:14;;;;;;;0.00;0.00;;;10.80;69.90;;;;;;5085411;28;20802;-37
2024/01/01 00:46:42;;;;;;;0.00;0.00;;;10.80;70.80;;;;;;5087181;28;20638;-25
2024/01/01 00:49:13;;;;;;;0.00;0.00;;;10.70;69.90;;;;;;5085067;28;20246;-25
2024/01/01 00:51:43;;;;;;;0.00;0.00;;;10.70;70.00;;;;;;5085316;28;20223;-25
2024/01/01 00:54:15;;;;;;;0.00;0.00;;;10.70;70.00;;;;;;5083887;28;20210;-25
2024/01/01 00:56:45;;;;;;;0.00;0.00;;;10.70;70.20;;;;;;5081907;28;20661;-26
2024/01/01 00:59:17;;;;;;;0.00;0.00;;;10.70;70.10;;;;;;5087931;28;20195;-25
2024/01/01 01:01:44;;;;;;;0.00;0.00;;;10.70;70.20;;;;;;5086692;28;20225;-25
2024/01/01 01:04:11;;;;;;;0.00;0.00;;;10.70;70.30;;;;;;5083954;28;20207;-25
2024/01/01 01:06:38;;;;;;;0.00;0.00;;;10.70;70.30;;;;;;5068576;28;20235;-25
2024/01/01 01:09:08;;;;;;;0.00;0.00;;;10.60;70.20;;;;;;5086575;28;20219;-25
2024/01/01 01:11:40;;;;;;;0.00;0.00;;;10.60;70.20;;;;;;5081857;28;20227;-25
2024/01/01 01:14:10;;;;;;;0.00;0.00;;;10.60;70.20;;;;;;5068050;28;20575;-25
2024/01/01 01:16:37;;;;;;;0.00;0.00;;;10.60;70.30;;;;;;5085116;28;20198;-25
2024/01/01 01:19:05;;;;;;;0.00;0.00;;;10.60;70.40;;;;;;5085278;28;20203;-25
2024/01/01 01:21:32;;;;;;;0.00;0.00;;;10.60;70.40;;;;;;5086896;28;20211;-25
2024/01/01 01:23:59;;;;;;;0.00;0.00;;;10.60;70.40;;;;;;5086022;28;20655;-25
2024/01/01 01:26:31;;;;;;;0.00;0.00;;;10.60;70.40;;;;;;5036378;28;20207;-25
2024/01/01 01:29:01;;;;;;;0.00;0.00;;;10.60;70.40;;;;;;5083528;28;20214;-25
2024/01/01 01:31:30;;;;;;;0.00;0.00;;;10.60;70.40;;;;;;5061417;28;20211;-25
2024/01/01 01:34:05;;;;;;;0.00;0.00;;;10.60;70.40;;;;;;5084961;28;20339;-25
2024/01/01 01:36:34;;;;;;;0.00;0.00;;;10.50;70.40;;;;;;5080725;28;20662;-25
2024/01/01 01:39:01;;;;;;;0.00;0.00;;;10.50;70.40;;;;;;5065304;28;20352;-25
2024/01/01 01:41:31;;;;;;;0.00;0.00;;;10.50;70.40;;;;;;5064870;28;20211;-26
2024/01/01 01:43:58;;;;;;;0.00;0.00;;;10.50;70.50;;;;;;5083282;28;20199;-26
2024/01/01 01:46:28;;;;;;;0.00;0.00;;;10.50;70.60;;;;;;5085082;28;20354;-26
2024/01/01 01:48:58;;;;;;;0.00;0.00;;;10.50;70.60;;;;;;5082848;28;20195;-26
2024/01/01 01:51:25;;;;;;;0.00;0.00;;;10.50;70.60;;;;;;5086279;28;20210;-26
2024/01/01 01:53:53;;;;;;;0.00;0.00;;;10.50;70.70;;;;;;5084128;28;20586;-26
2024/01/01 01:56:23;;;;;;;0.00;0.00;;;10.40;70.60;;;;;;5085992;28;20218;-26
2024/01/01 01:58:53;;;;;;;0.00;0.00;;;10.40;70.50;;;;;;5059057;28;20448;-26
2024/01/01 02:01:21;;;;;;;0.00;0.00;;;10.40;70.60;;;;;;5082362;28;20199;-26
2024/01/01 02:03:48;;;;;;;0.00;0.00;;;10.40;70.70;;;;;;5082535;28;20234;-26
2024/01/01 02:06:15;;;;;;;0.00;0.00;;;10.40;70.70;;;;;;5082053;28;20400;-26
2024/01/01 02:08:43;;;;;;;0.00;0.00;;;10.40;70.70;;;;;;5082080;28;20233;-26
2024/01/01 02:11:10;;;;;;;0.00;0.00;;;10.30;70.70;;;;;;5065047;28;20761;-26
2024/01/01 02:13:37;;;;;;;0.00;0.00;;;10.30;70.60;;;;;;5087944;28;20222;-26
2024/01/01 02:16:05;;;;;;;0.00;0.00;;;10.30;70.70;;;;;;5084224;28;20202;-26
2024/01/01 02:18:34;;;;;;;0.00;0.00;;;10.30;70.70;;;;;;5087313;28;20187;-26
2024/01/01 02:21:04;;;;;;;0.00;0.00;;;10.30;70.90;;;;;;5082774;28;20211;-26
2024/01/01 02:23:33;;;;;;;0.00;0.00;;;10.30;70.60;;;;;;5089252;28;20711;-25
2024/01/01 02:26:01;;;;;;;0.00;0.00;;;10.30;70.80;;;;;;5088144;28;20299;-26
2024/01/01 02:28:31;;;;;;;0.00;0.00;;;10.30;70.60;;;;;;5067179;28;20693;-26
2024/01/01 02:30:58;;;;;;;0.00;0.00;;;10.30;70.70;;;;;;5085818;28;20215;-25
2024/01/01 02:33:32;;;;;;;0.00;0.00;;;10.30;70.70;;;;;;5087006;28;20696;-25
2024/01/01 02:36:00;;;;;;;0.00;0.00;;;10.30;70.90;;;;;;5087296;28;20246;-26
2024/01/01 02:38:29;;;;;;;0.00;0.00;;;10.30;70.80;;;;;;5082802;28;20199;-26
2024/01/01 02:40:59;;;;;;;0.00;0.00;;;10.30;70.70;;;;;;5089084;28;20268;-25
2024/01/01 02:43:28;;;;;;;0.00;0.00;;;10.30;70.90;;;;;;5089347;28;20252;-26
2024/01/01 02:45:58;;;;;;;0.00;0.00;;;10.30;70.70;;;;;;5083345;28;20622;-26
2024/01/01 02:48:25;;;;;;;0.00;0.00;;;10.30;70.70;;;;;;5086336;28;20218;-26
2024/01/01 02:50:53;;;;;;;0.00;0.00;;;10.20;70.60;;;;;;5088450;28;20218;-26
2024/01/01 02:53:22;;;;;;;0.00;0.00;;;10.20;70.60;;;;;;5087556;28;20211;-26
2024/01/01 02:55:49;;;;;;;0.00;0.00;;;10.20;70.60;;;;;;5088735;28;20298;-25
2024/01/01 02:58:16;;;;;;;0.00;0.00;;;10.20;70.60;;;;;;5089181;28;20235;-26
2024/01/01 03:00:47;;;;;;;0.00;0.00;;;10.20;70.60;;;;;;5072008;28;20673;-25
2024/01/01 03:03:17;;;;;;;0.00;0.00;;;10.20;70.50;;;;;;5082284;28;20201;-25
2024/01/01 03:05:47;;;;;;;0.00;0.00;;;10.20;70.60;;;;;;5086395;28;20250;-26
2024/01/01 03:08:16;;;;;;;0.00;0.00;;;10.20;70.70;;;;;;5078329;28;20957;-26
2024/01/01 03:10:44;;;;;;;0.00;0.00;;;10.20;70.70;;;;;;5086228;28;20649;-25
2024/01/01 03:13:13;;;;;;;0.00;0.00;;;10.20;70.70;;;;;;5079406;28;20299;-26
2024/01/01 03:15:43;;;;;;;0.00;0.00;;;10.20;70.70;;;;;;5086074;28;20232;-26
2024/01/01 03:18:12;;;;;;;0.00;0.00;;;10.20;70.60;;;;;;5085161;28;20199;-26
2024/01/01 03:20:41;;;;;;;0.00;0.00;;;10.10;70.60;;;;;;5085414;28;20199;-26
2024/01/01 03:23:13;;;;;;;0.00;0.00;;;10.10;70.60;;;;;;5087483;28;20718;-26
2024/01/01 03:25:46;;;;;;;0.00;0.00;;;10.10;70.70;;;;;;5087340;28;20294;-25
2024/01/01 03:28:13;;;;;;;0.00;0.00;;;10.10;70.70;;;;;;5075067;28;20233;-26
2024/01/01 03:30:42;;;;;;;0.00;0.00;;;10.10;70.70;;;;;;5085573;28;20211;-25
2024/01/01 03:33:12;;;;;;;0.00;0.00;;;10.10;70.70;;;;;;5068617;28;20227;-25
2024/01/01 03:35:42;;;;;;;0.00;0.00;;;10.10;70.70;;;;;;5086970;28;20198;-26
2024/01/01 03:38:11;;;;;;;0.00;0.00;;;10.10;70.70;;;;;;5086789;28;20207;-26
2024/01/01 03:40:40;;;;;;;0.00;0.00;;;10.10;70.70;;;;;;5085694;28;20211;-25
2024/01/01 03:43:09;;;;;;;0.00;0.00;;;10.10;70.70;;;;;;5085499;28;20256;-26
2024/01/01 03:45:37;;;;;;;0.00;0.00;;;10.10;70.70;;;;;;5086706;28;20209;-25
2024/01/01 03:48:04;;;;;;;0.00;0.00;;;10.10;70.60;;;;;;5081428;28;20199;-25
2024/01/01 03:50:34;;;;;;;0.00;0.00;;;10.10;70.70;;;;;;5083450;28;20223;-26
2024/01/01 03:53:01;;;;;;;0.00;0.00;;;10.10;70.70;;;;;;5086759;28;20222;-26
2024/01/01 03:55:29;;;;;;;0.00;0.00;;;10.10;70.70;;;;;;5085486;28;20218;-25
2024/01/01 03:57:58;;;;;;;0.00;0.00;;;10.10;70.70;;;;;;5088492;28;20223;-25
2024/01/01 04:00:26;;;;;;;0.00;0.00;;;10.10;70.70;;;;;;5086210;28;20203;-25
2024/01/01 04:02:56;;;;;;;0.00;0.00;;;10.10;70.70;;;;;;5079181;28;20239;-26
2024/01/01 04:05:23;;;;;;;0.00;0.00;;;10.10;70.80;;;;;;5045389;28;1135403;-26
2024/01/01 04:07:52;;;;;;;0.00;0.00;;;10.10;70.70;;;;;;5082861;28;20213;-25
2024/01/01 04:10:20;;;;;;;0.00;0.00;;;10.00;70.60;;;;;;5067816;28;20238;-25
2024/01/01 04:12:50;;;;;;;0.00;0.00;;;10.10;70.70;;;;;;5086189;28;20617;-25
2024/01/01 04:15:20;;;;;;;0.00;0.00;;;10.10;70.70;;;;;;5086331;28;20203;-26
2024/01/01 04:17:49;;;;;;;0.00;0.00;;;10.00;70.60;;;;;;5085442;28;20215;-25
2024/01/01 04:20:19;;;;;;;0.00;0.00;;;10.00;70.60;;;;;;5083753;28;20199;-26
2024/01/01 04:22:48;;;;;;;0.00;0.00;;;10.00;70.70;;;;;;5085995;28;20226;-25
2024/01/01 04:25:15;;;;;;;0.00;0.00;;;10.00;70.80;;;;;;5087599;28;20210;-26
2024/01/01 04:27:44;;;;;;;0.00;0.00;;;10.00;70.80;;;;;;5084630;28;20221;-26
2024/01/01 04:30:13;;;;;;;0.00;0.00;;;10.00;70.80;;;;;;5087370;28;20214;-26
2024/01/01 04:32:41;;;;;;;0.00;0.00;;;10.00;71.00;;;;;;5086352;28;20231;-25
2024/01/01 04:35:10;;;;;;;0.00;0.00;;;10.00;70.80;;;;;;5084430;28;20627;-25
2024/01/01 04:37:40;;;;;;;0.00;0.00;;;10.00;71.00;;;;;;5099517;28;20286;-26
2024/01/01 04:40:07;;;;;;;0.00;0.00;;;10.00;70.90;;;;;;5085794;28;20704;-25
2024/01/01 04:42:37;;;;;;;0.00;0.00;;;10.00;71.00;;;;;;5085534;28;20234;-25
2024/01/01 04:45:05;;;;;;;0.00;0.00;;;10.00;70.90;;;;;;5087202;28;20209;-26
2024/01/01 04:47:32;;;;;;;0.00;0.00;;;10.00;70.90;;;;;;5085961;28;20214;-26
2024/01/01 04:50:01;;;;;;;0.00;0.00;;;9.90;70.80;;;;;;5076817;28;20245;-26
2024/01/01 04:52:29;;;;;;;0.00;0.00;;;9.90;70.80;;;;;;5086151;28;20215;-25
2024/01/01 04:54:58;;;;;;;0.00;0.00;;;9.90;71.00;;;;;;5086467;28;20210;-25
2024/01/01 04:57:26;;;;;;;0.00;0.00;;;9.90;70.90;;;;;;5088344;28;20234;-25
2024/01/01 04:59:58;;;;;;;0.00;0.00;;;9.90;70.90;;;;;;5088548;28;20209;-26
2024/01/01 05:02:27;;;;;;;0.00;0.00;;;9.90;71.20;;;;;;5087983;28;20221;-26
2024/01/01 05:04:57;;;;;;;0.00;0.00;;;9.90;71.00;;;;;;5086829;28;20321;-26
2024/01/01 05:07:24;;;;;;;0.00;0.00;;;9.90;71.10;;;;;;5086913;28;20210;-26
2024/01/01 05:09:51;;;;;;;0.00;0.00;;;9.80;70.90;;;;;;5086452;28;20248;-26
2024/01/01 05:12:21;;;;;;;0.00;0.00;;;9.80;70.90;;;;;;5084979;28;20231;-26
2024/01/01 05:14:50;;;;;;;0.00;0.00;;;9.80;70.90;;;;;;5087027;28;20600;-26
2024/01/01 05:17:19;;;;;;;0.00;0.00;;;9.80;70.90;;;;;;5084766;28;20199;-25
2024/01/01 05:19:50;;;;;;;0.00;0.00;;;9.80;70.90;;;;;;5084529;28;20253;-25
2024/01/01 05:22:18;;;;;;;0.00;0.00;;;9.80;70.90;;;;;;5086964;28;20207;-25
2024/01/01 05:24:47;;;;;;;0.00;0.00;;;9.80;71.10;;;;;;5087099;28;20339;-26
2024/01/01 05:27:14;;;;;;;0.00;0.00;;;9.80;71.10;;;;;;5079634;28;20222;-26
2024/01/01 05:29:42;;;;;;;0.00;0.00;;;9.80;71.10;;;;;;5084993;28;20211;-26
2024/01/01 05:32:16;;;;;;;0.00;0.00;;;9.80;71.00;;;;;;5084113;28;20221;-25
2024/01/01 05:34:46;;;;;;;0.00;0.00;;;9.70;71.00;;;;;;5086084;28;20709;-26
2024/01/01 05:37:14;;;;;;;0.00;0.00;;;9.70;71.00;;;;;;5085965;28;20256;-26
2024/01/01 05:39:43;;;;;;;0.00;0.00;;;9.70;71.00;;;;;;5085988;28;20218;-26
2024/01/01 05:42:13;;;;;;;0.00;0.00;;;9.70;71.10;;;;;;5084533;28;20610;-26
2024/01/01 05:44:42;;;;;;;0.00;0.00;;;9.70;71.00;;;;;;5082442;28;20230;-26
2024/01/01 05:47:09;;;;;;;0.00;0.00;;;9.70;71.00;;;;;;5083558;28;20204;-26
2024/01/01 05:49:39;;;;;;;0.00;0.00;;;9.70;71.10;;;;;;5085890;28;20215;-26
2024/01/01 05:52:06;;;;;;;0.00;0.00;;;9.70;71.10;;;;;;5084416;28;20248;-26
2024/01/01 05:54:38;;;;;;;0.00;0.00;;;9.70;71.20;;;;;;5082519;28;20272;-26
2024/01/01 05:57:06;;;;;;;0.00;0.00;;;9.70;71.10;;;;;;5079771;28;20286;-26
2024/01/01 05:59:33;;;;;;;0.00;0.00;;;9.70;71.20;;;;;;5082865;28;20593;-26
2024/01/01 06:02:03;;;;;;;0.00;0.00;;;9.70;71.20;;;;;;5062070;28;20203;-26
2024/01/01 06:04:30;;;;;;;0.00;0.00;;;9.70;71.20;;;;;;5084253;28;20613;-26
2024/01/01 06:07:00;;;;;;;0.00;0.00;;;9.60;71.20;;;;;;5064576;28;20202;-26
2024/01/01 06:09:30;;;;;;;0.00;0.00;;;9.70;71.30;;;;;;5085313;28;21200;-25
2024/01/01 06:12:00;;;;;;;0.00;0.00;;;9.70;71.30;;;;;;5084101;28;20202;-27
2024/01/01 06:14:32;;;;;;;0.00;0.00;;;9.70;71.40;;;;;;5083447;28;20222;-26
2024/01/01 06:16:59;;;;;;;0.00;0.00;;;9.70;71.70;;;;;;5083989;28;20364;-26
2024/01/01 06:19:27;;;;;;;0.00;0.00;;;9.70;71.30;;;;;;5082886;28;20264;-26
2024/01/01 06:22:00;;;;;;;0.00;0.00;;;9.70;71.30;;;;;;5077975;28;20552;-26
2024/01/01 06:24:29;;;;;;;0.00;0.00;;;9.70;71.40;;;;;;5084457;28;20295;-26
2024/01/01 06:26:59;;;;;;;0.00;0.00;;;9.70;71.40;;;;;;5085519;28;20899;-26
2024/01/01 06:29:27;;;;;;;0.00;0.00;;;9.70;71.40;;;;;;5085424;28;20203;-26
2024/01/01 06:31:54;;;;;;;0.00;0.00;;;9.70;71.30;;;;;;5080098;28;20203;-26
2024/01/01 06:34:21;;;;;;;0.00;0.00;;;9.70;71.40;;;;;;5080932;28;20280;-26
2024/01/01 06:36:48;;;;;;;0.00;0.00;;;9.70;71.50;;;;;;5081539;28;20346;-26
2024/01/01 06:39:21;;;;;;;0.00;0.00;;;9.70;71.60;;;;;;5085012;28;20199;-25
2024/01/01 06:41:50;;;;;;;0.00;0.00;;;9.70;71.60;;;;;;5068321;28;20682;-26
2024/01/01 06:44:17;;;;;;;0.00;0.00;;;9.70;71.70;;;;;;5082462;28;20222;-26
2024/01/01 06:46:47;;;;;;;0.00;0.00;;;9.70;71.60;;;;;;5079937;28;20394;-25
2024/01/01 06:49:14;;;;;;;0.00;0.00;;;9.70;71.60;;;;;;5082158;28;20302;-25
2024/01/01 06:51:44;;;;;;;0.00;0.00;;;9.70;71.80;;;;;;5064559;28;20223;-26
2024/01/01 06:54:13;;;;;;;0.00;0.00;;;9.70;71.70;;;;;;5081148;28;20772;-26
2024/01/01 06:56:43;;;;;;;0.00;0.00;;;9.70;71.90;;;;;;5083994;28;20207;-26
2024/01/01 06:59:13;;;;;;;0.00;0.00;;;9.70;71.60;;;;;;5080292;28;20191;-25
2024/01/01 07:01:45;;;;;;;0.00;0.00;;;9.70;71.70;;;;;;5087019;28;20656;-26
2024/01/01 07:04:15;;;;;;;0.00;0.00;;;9.70;71.70;;;;;;5080224;28;20214;-25
2024/01/01 07:06:45;;;;;;;0.00;0.00;;;9.70;72.00;;;;;;5083395;28;20239;-26
2024/01/01 07:09:12;;;;;;;0.00;0.00;;;9.70;71.80;;;;;;5079508;28;20737;-25
2024/01/01 07:11:42;;;;;;;0.00;0.00;;;9.70;72.50;;;;;;5080213;28;20644;-25
2024/01/01 07:14:16;;;;;;;0.00;0.00;;;9.70;71.70;;;;;;5081361;28;20231;-26
2024/01/01 07:16:44;;;;;;;0.00;0.00;;;9.70;71.90;;;;;;5086203;28;20234;-26
2024/01/01 07:19:12;;;;;;;0.00;0.00;;;9.70;71.80;;;;;;5083852;28;20222;-26
2024/01/01 07:21:40;;;;;;;0.00;0.00;;;9.70;71.70;;;;;;5084892;28;20198;-25
2024/01/01 07:24:09;;;;;;;0.00;0.00;;;9.70;71.80;;;;;;5081787;28;20222;-26
2024/01/01 07:26:39;;;;;;;0.00;0.00;;;9.70;71.80;;;;;;5086360;28;20211;-26
2024/01/01 07:29:08;;;;;;;0.00;0.00;;;9.70;72.10;;;;;;5084357;28;20215;-26
2024/01/01 07:31:36;;;;;;;0.00;0.00;;;9.70;71.80;;;;;;5084610;28;20289;-26
2024/01/01 07:34:03;;;;;;;0.00;0.00;;;9.70;71.90;;;;;;5080192;28;20211;-26
2024/01/01 07:36:31;;;;;;;0.00;0.00;;;9.70;72.70;;;;;;5085193;28;20221;-26
2024/01/01 07:38:58;;;;;;;0.00;0.00;;;9.70;71.80;;;;;;5083087;28;20561;-26
2024/01/01 07:41:27;;;;;;;0.00;0.00;;;9.70;71.90;;;;;;5084347;28;20235;-26
2024/01/01 07:43:55;;;;;;;0.00;0.00;;;9.70;72.00;;;;;;5082896;28;20202;-26
2024/01/01 07:46:27;;;;;;;0.00;0.00;;;9.70;71.80;;;;;;5084731;28;20245;-26
2024/01/01 07:49:02;;;;;;;0.00;0.00;;;9.70;72.20;;;;;;5086965;28;20245;-26
2024/01/01 07:51:34;;;;;;;0.00;0.00;;;9.70;71.80;;;;;;5084257;28;20757;-25
2024/01/01 07:54:06;;;;;;;0.00;0.00;;;9.70;71.90;;;;;;5084317;28;20228;-26
2024/01/01 07:56:37;;;;;;;0.00;0.00;;;9.70;72.40;;;;;;5084534;28;20206;-25
2024/01/01 07:59:07;;;;;;;0.00;0.00;;;9.70;72.00;;;;;;5086614;28;20256;-26
2024/01/01 08:01:34;;;;;;;0.00;0.00;;;9.70;72.00;;;;;;5083995;28;20206;-26
2024/01/01 08:04:03;;;;;;;0.00;0.00;;;9.70;72.00;;;;;;5086358;28;20214;-26
2024/01/01 08:06:37;;;;;;;0.00;0.00;;;9.70;72.10;;;;;;5085590;28;20235;-26
2024/01/01 08:09:05;;;;;;;0.00;0.00;;;9.70;72.00;;;;;;5087132;28;20217;-26
2024/01/01 08:11:37;;;;;;;0.00;0.00;;;9.70;72.20;;;;;;5084960;28;20213;-26
2024/01/01 08:14:09;;;;;;;0.00;0.00;;;9.70;72.10;;;;;;5084891;28;20645;-25
2024/01/01 08:16:39;;;;;;;0.00;0.00;;;9.70;72.20;;;;;;5084001;28;20293;-25
2024/01/01 08:19:08;;;;;;;0.00;0.00;;;9.70;72.10;;;;;;5084560;28;20211;-25
2024/01/01 08:21:41;;;;;;;0.00;0.00;;;9.70;72.10;;;;;;5083360;28;20289;-26
2024/01/01 08:24:08;;;;;;;0.00;0.00;;;9.70;72.00;;;;;;5085288;28;20211;-26
2024/01/01 08:26:36;;;;;;;0.00;0.00;;;9.70;72.10;;;;;;5084184;28;20669;-26
2024/01/01 08:29:03;;;;;;;0.00;0.00;;;9.70;72.10;;;;;;5084452;28;20211;-27
2024/01/01 08:31:33;;;;;;;0.00;0.00;;;9.70;72.10;;;;;;5083399;28;20686;-26
2024/01/01 08:34:03;;;;;;;0.00;0.00;;;9.70;72.00;;;;;;5083811;28;20329;-26
2024/01/01 08:36:30;;;;;;;0.00;0.00;;;9.70;72.10;;;;;;5061802;28;20637;-25
2024/01/01 08:39:00;;;;;;;0.00;0.00;;;9.70;72.10;;;;;;5086981;28;20711;-26
2024/01/01 08:41:29;;;;;;;0.00;0.00;;;9.70;72.20;;;;;;5078117;28;20195;-26
2024/01/01 08:44:06;;;;;;;0.00;0.00;;;9.70;72.10;;;;;;5086940;28;20197;-25
2024/01/01 08:46:39;;;;;;;0.00;0.00;;;9.70;72.20;;;;;;5078866;28;20219;-25
2024/01/01 08:49:07;;;;;;;0.00;0.00;;;9.70;72.00;;;;;;5076898;28;20295;-25
2024/01/01 08:51:35;;;;;;;0.00;0.00;;;9.70;72.10;;;;;;5083056;28;20836;-25
2024/01/01 08:54:05;;;;;;;0.00;0.00;;;9.70;72.10;;;;;;5084894;28;20229;-25
2024/01/01 08:56:37;;;;;;;0.00;0.00;;;9.70;72.10;;;;;;5085483;28;20217;-25
2024/01/01 08:59:05;;;;;;;0.00;0.00;;;9.70;72.20;;;;;;5081963;28;20210;-25
2024/01/01 09:01:36;;;;;;;0.00;0.00;;;9.70;72.20;;;;;;5086220;28;20207;-26
2024/01/01 09:04:08;;;;;;;0.00;0.00;;;9.70;72.20;;;;;;5086267;28;20310;-25
2024/01/01 09:06:39;;;;;;;0.00;0.00;;;9.70;72.50;;;;;;5086636;28;20267;-25
2024/01/01 09:09:10;;;;;;;0.00;0.00;;;9.70;72.20;;;;;;5076206;28;21909;-26
2024/01/01 09:11:37;;;;;;;0.00;0.00;;;9.70;72.30;;;;;;5079690;28;20668;-25
2024/01/01 09:14:05;;;;;;;0.00;0.00;;;9.80;72.40;;;;;;5082376;28;20695;-26
2024/01/01 09:16:41;;;;;;;0.00;0.00;;;9.80;72.50;;;;;;5081239;28;20195;-25
2024/01/01 09:19:11;;;;;;;0.00;0.00;;;9.80;72.50;;;;;;5079305;28;20778;-25
2024/01/01 09:21:38;;;;;;;0.00;0.00;;;9.80;72.40;;;;;;5078295;28;20197;-25
2024/01/01 09:24:09;;;;;;;0.00;0.00;;;9.80;72.50;;;;;;5078299;28;20583;-26
2024/01/01 09:26:39;;;;;;;0.00;0.00;;;9.80;72.50;;;;;;5083883;28;20297;-26
2024/01/01 09:29:08;;;;;;;0.00;0.00;;;9.80;72.50;;;;;;5083989;28;20295;-26
2024/01/01 09:31:36;;;;;;;0.00;0.00;;;9.90;72.50;;;;;;5080762;28;20223;-26
2024/01/01 09:34:06;;;;;;;0.00;0.00;;;9.90;72.40;;;;;;5064332;28;20234;-25
2024/01/01 09:36:34;;;;;;;0.00;0.00;;;9.90;72.50;;;;;;5079477;28;20199;-25
2024/01/01 09:39:17;;;;;;;0.00;0.00;;;9.90;72.50;;;;;;5069703;28;20218;-26
2024/01/01 09:41:52;;;;;;;0.00;0.00;;;9.90;72.60;;;;;;5079915;28;20222;-25
2024/01/01 09:44:19;;;;;;;0.00;0.00;;;10.00;72.60;;;;;;5079783;28;20286;-26
2024/01/01 09:46:47;;;;;;;0.00;0.00;;;10.00;72.70;;;;;;5077929;28;20199;-26
2024/01/01 09:49:14;;;;;;;0.00;0.00;;;10.00;72.60;;;;;;5082729;28;20769;-26
2024/01/01 09:51:41;;;;;;;0.00;0.00;;;10.00;72.50;;;;;;5083611;28;20214;-26
2024/01/01 09:54:13;;;;;;;0.00;0.00;;;10.00;72.50;;;;;;5081791;28;20227;-26
2024/01/01 09:56:43;;;;;;;0.00;0.00;;;10.10;72.50;;;;;;5083926;28;20580;-25
2024/01/01 09:59:33;;;;;;;0.00;0.00;;;10.10;72.50;;;;;;5079327;28;20199;-25
2024/01/01 10:02:09;;;;;;;0.00;0.00;;;10.10;72.70;;;;;;5081757;28;20293;-25
2024/01/01 10:04:41;;;;;;;0.00;0.00;;;10.10;72.60;;;;;;5079942;28;20229;-26
2024/01/01 10:07:08;;;;;;;0.00;0.00;;;10.10;72.70;;;;;;5082943;28;20207;-26
2024/01/01 10:09:50;;;;;;;0.00;0.00;;;10.20;72.80;;;;;;5082953;28;20588;-25
2024/01/01 10:12:22;;;;;;;0.00;0.00;;;10.20;72.70;;;;;;5078985;28;20226;-25
2024/01/01 10:14:50;;;;;;;0.00;0.00;;;10.20;72.60;;;;;;5084018;28;20735;-26
2024/01/01 10:17:18;;;;;;;0.00;0.00;;;10.20;72.80;;;;;;5079045;28;20202;-26
2024/01/01 10:19:53;;;;;;;0.00;0.00;;;10.30;72.80;;;;;;5079747;28;20199;-26
2024/01/01 10:22:22;;;;;;;0.00;0.00;;;10.30;72.80;;;;;;5082224;28;20211;-26
2024/01/01 10:24:55;;;;;;;0.00;0.00;;;10.30;72.70;;;;;;5085553;28;20235;-26
2024/01/01 10:27:22;;;;;;;0.00;0.00;;;10.30;72.60;;;;;;5084145;28;20209;-26
2024/01/01 10:29:50;;;;;;;0.00;0.00;;;10.30;72.60;;;;;;5083903;28;20584;-26
2024/01/01 10:32:18;;;;;;;0.00;0.00;;;10.40;72.60;;;;;;5078085;28;20627;-25
2024/01/01 10:34:49;;;;;;;0.00;0.00;;;10.40;72.60;;;;;;5085582;28;20223;-26
2024/01/01 10:37:23;;;;;;;0.00;0.00;;;10.40;72.60;;;;;;5086164;28;20241;-26
2024/01/01 10:39:54;;;;;;;0.00;0.00;;;10.40;72.70;;;;;;5086668;28;20199;-26
2024/01/01 10:42:21;;;;;;;0.00;0.00;;;10.40;72.50;;;;;;5081309;28;20222;-25
2024/01/01 10:44:51;;;;;;;0.00;0.00;;;10.40;72.50;;;;;;5087337;28;20268;-25
2024/01/01 10:47:22;;;;;;;0.00;0.00;;;10.40;72.50;;;;;;5087067;28;20218;-25
2024/01/01 10:49:56;;;;;;;0.00;0.00;;;10.40;72.60;;;;;;5084897;28;20203;-26
2024/01/01 10:53:05;;;;;;;0.00;0.00;;;10.40;72.60;;;;;;5085490;28;20291;-25
2024/01/01 10:56:16;;;;;;;0.00;0.00;;;10.50;72.90;;;;;;5077783;28;20228;-26
2024/01/01 10:58:51;;;;;;;0.00;0.00;;;10.40;72.80;;;;;;5082680;28;20202;-25
2024/01/01 11:01:20;;;;;;;0.00;0.00;;;10.40;72.70;;;;;;5078535;28;20305;-25
2024/01/01 11:03:51;;;;;;;0.00;0.00;;;10.50;72.90;;;;;;5079771;28;20428;-25
2024/01/01 11:06:29;;;;;;;0.00;0.00;;;10.50;72.80;;;;;;5088331;28;20578;-26
2024/01/01 11:09:17;;;;;;;0.00;0.00;;;10.50;72.90;;;;;;5079819;28;20617;-26
2024/01/01 11:11:56;;;;;;;0.00;0.00;;;10.50;72.80;;;;;;5086598;28;20202;-26
2024/01/01 11:14:44;;;;;;;0.00;0.00;;;10.50;72.80;;;;;;5087043;28;20218;-25
2024/01/01 11:17:14;;;;;;;0.00;0.00;;;10.60;72.80;;;;;;5079048;28;20203;-25
2024/01/01 11:19:48;;;;;;;0.00;0.00;;;10.60;73.40;;;;;;5081610;28;20207;-25
2024/01/01 11:22:30;;;;;;;0.00;0.00;;;10.60;72.80;;;;;;5081582;28;20259;-25
2024/01/01 11:24:59;;;;;;;0.00;0.00;;;10.60;72.80;;;;;;5077589;28;20199;-25
2024/01/01 11:27:27;;;;;;;0.00;0.00;;;10.60;72.70;;;;;;5086485;28;20203;-34
2024/01/01 11:30:06;;;;;;;0.00;0.00;;;10.60;72.50;;;;;;5087003;28;20712;-34
2024/01/01 11:32:36;;;;;;;0.00;0.00;;;10.70;72.70;;;;;;5085755;28;20242;-34
2024/01/01 11:35:07;;;;;;;0.00;0.00;;;10.70;72.70;;;;;;5087230;28;20313;-35
2024/01/01 11:37:40;;;;;;;0.00;0.00;;;10.70;72.70;;;;;;5084981;28;20651;-34
2024/01/01 11:40:11;;;;;;;0.00;0.00;;;10.70;72.80;;;;;;5086623;28;20201;-35
2024/01/01 11:42:38;;;;;;;0.00;0.00;;;10.70;72.70;;;;;;5084245;28;20310;-34
2024/01/01 11:45:16;;;;;;;0.00;0.00;;;10.70;72.80;;;;;;5085798;28;20314;-35
2024/01/01 11:47:45;;;;;;;0.00;0.00;;;10.80;72.90;;;;;;5082312;28;20198;-34
2024/01/01 11:50:16;;;;;;;0.00;0.00;;;10.80;73.20;;;;;;5084412;28;20669;-34
2024/01/01 11:53:00;;;;;;;0.00;0.00;;;10.80;72.90;;;;;;5082859;28;20207;-35
2024/01/01 11:55:29;;;;;;;0.00;0.00;;;10.80;72.90;;;;;;5084463;28;20222;-35
2024/01/01 11:57:57;;;;;;;0.00;0.00;;;10.80;72.80;;;;;;5085036;28;20195;-34
2024/01/01 12:00:28;;;;;;;0.00;0.00;;;10.90;72.80;;;;;;5078542;28;20200;-34
2024/01/01 12:02:57;;;;;;;0.00;0.00;;;10.90;72.70;;;;;;5081187;28;20251;-35
2024/01/01 12:05:26;;;;;;;0.00;0.00;;;10.90;72.70;;;;;;5081133;28;20717;-34
2024/01/01 12:07:53;;;;;;;0.00;0.00;;;10.90;72.60;;;;;;5083951;28;20217;-34
2024/01/01 12:10:25;;;;;;;0.00;0.00;;;10.90;72.60;;;;;;5087571;28;20227;-34
2024/01/01 12:13:00;;;;;;;0.00;0.00;;;10.90;72.60;;;;;;5087755;28;20677;-34
2024/01/01 12:15:31;;;;;;;0.00;0.00;;;10.90;72.70;;;;;;5085441;28;20218;-34
2024/01/01 12:18:00;;;;;;;0.00;0.00;;;10.90;72.50;;;;;;5083079;28;20252;-35
2024/01/01 12:20:31;;;;;;;0.00;0.00;;;10.90;72.60;;;;;;5078037;28;20209;-34
2024/01/01 12:23:12;;;;;;;0.00;0.00;;;10.90;72.60;;;;;;5086338;28;20234;-34
2024/01/01 12:25:39;;;;;;;0.00;0.00;;;10.90;72.70;;;;;;5085558;28;20203;-34
2024/01/01 12:28:08;;;;;;;0.00;0.00;;;10.90;72.60;;;;;;5085438;28;20267;-34
2024/01/01 12:30:38;;;;;;;0.00;0.00;;;10.90;72.60;;;;;;5087598;28;20210;-35
2024/01/01 12:33:07;;;;;;;0.00;0.00;;;10.90;72.50;;;;;;5076422;28;20214;-34
2024/01/01 12:35:46;;;;;;;0.00;0.00;;;10.90;72.60;;;;;;5084411;28;20262;-35
2024/01/01 12:38:15;;;;;;;0.00;0.00;;;10.90;72.60;;;;;;5073134;28;20210;-34
2024/01/01 12:40:47;;;;;;;0.00;0.00;;;10.90;72.60;;;;;;5087350;28;20191;-34
2024/01/01 12:43:14;;;;;;;0.00;0.00;;;10.90;72.60;;;;;;5066197;28;20219;-34
2024/01/01 12:45:44;;;;;;;0.00;0.00;;;10.90;72.40;;;;;;5060586;28;20556;-34
2024/01/01 12:48:14;;;;;;;0.00;0.00;;;11.00;72.70;;;;;;5082277;28;20226;-34
2024/01/01 12:50:44;;;;;;;0.00;0.00;;;11.00;72.60;;;;;;5082483;28;20669;-34
2024/01/01 12:53:11;;;;;;;0.00;0.00;;;10.90;72.50;;;;;;5085123;28;20223;-34
2024/01/01 12:55:41;;;;;;;0.00;0.00;;;11.00;72.60;;;;;;5085005;28;20241;-33
2024/01/01 12:58:10;;;;;;;0.00;0.00;;;11.00;72.60;;;;;;5065269;28;20214;-35
2024/01/01 13:00:37;;;;;;;0.00;0.00;;;11.00;72.50;;;;;;5085691;28;20206;-33
2024/01/01 13:03:07;;;;;;;0.00;0.00;;;11.00;72.50;;;;;;5084114;28;20218;-33
2024/01/01 13:05:36;;;;;;;0.00;0.00;;;11.00;72.60;;;;;;5082542;28;20741;-34